createdAt,value
2016-12-16T00:00:35.529Z,42.46
2016-12-16T00:01:44.824Z,42.36
2016-12-16T00:02:53.853Z,42.07
2016-12-16T00:04:03.454Z,42.36
2016-12-16T00:05:12.772Z,42.07
2016-12-16T00:06:21.805Z,42.16
2016-12-16T00:07:30.802Z,42.16
2016-12-16T00:08:40.143Z,42.36
2016-12-16T00:09:49.446Z,42.46
2016-12-16T00:10:58.244Z,42.16
2016-12-16T00:12:07.542Z,42.14
2016-12-16T00:13:16.252Z,42.05
2016-12-16T00:14:24.961Z,42.24
2016-12-16T00:15:34.247Z,42.24
2016-12-16T00:16:43.580Z,42.36
2016-12-16T00:17:53.198Z,42.26
2016-12-16T00:19:02.596Z,42.33
2016-12-16T00:20:11.280Z,42.24
2016-12-16T00:21:19.984Z,42.14
2016-12-16T00:22:29.191Z,42.26
2016-12-16T00:23:37.885Z,42.16
2016-12-16T00:24:46.896Z,42.14
2016-12-16T00:25:55.955Z,42.43
2016-12-16T00:27:05.578Z,42.24
2016-12-16T00:28:15.525Z,42.46
2016-12-16T00:29:24.507Z,42.43
2016-12-16T00:30:33.211Z,42.46
2016-12-16T00:31:42.266Z,42.36
2016-12-16T00:32:51.888Z,42.36
2016-12-16T00:34:00.896Z,42.33
2016-12-16T00:35:10.194Z,42.24
2016-12-16T00:36:20.093Z,42.33
2016-12-16T00:37:29.387Z,42.43
2016-12-16T00:38:38.102Z,42.43
2016-12-16T00:39:47.581Z,42.33
2016-12-16T00:40:56.579Z,42.26
2016-12-16T00:42:05.978Z,42.14
2016-12-16T00:43:15.009Z,42.33
2016-12-16T00:44:23.690Z,42.33
2016-12-16T00:45:33.000Z,42.16
2016-12-16T00:46:42.041Z,42.43
2016-12-16T00:47:50.743Z,42.33
2016-12-16T00:49:00.358Z,42.43
2016-12-16T00:50:09.338Z,42.24
2016-12-16T00:51:18.738Z,42.05
2016-12-16T00:52:27.771Z,42.43
2016-12-16T00:53:36.767Z,42.14
2016-12-16T00:54:46.061Z,42.14
2016-12-16T00:55:54.771Z,42.14
2016-12-16T00:57:03.788Z,42.14
2016-12-16T00:58:13.077Z,42.24
2016-12-16T00:59:22.360Z,42.33
2016-12-16T01:00:31.666Z,42.05
2016-12-16T01:01:40.952Z,42.05
2016-12-16T01:02:50.658Z,42.36
2016-12-16T01:03:59.980Z,42.05
2016-12-16T01:05:08.967Z,42.26
2016-12-16T01:06:17.948Z,41.95
2016-12-16T01:07:26.626Z,42.43
2016-12-16T01:08:35.466Z,42.46
2016-12-16T01:09:44.461Z,42.43
2016-12-16T01:10:53.749Z,42.33
2016-12-16T01:12:02.759Z,42.14
2016-12-16T01:13:11.804Z,42.33
2016-12-16T01:14:20.551Z,42.43
2016-12-16T01:15:29.846Z,42.43
2016-12-16T01:16:38.539Z,42.43
2016-12-16T01:17:47.538Z,42.14
2016-12-16T01:18:56.842Z,42.43
2016-12-16T01:20:05.527Z,42.24
2016-12-16T01:21:14.516Z,42.33
2016-12-16T01:22:24.148Z,42.33
2016-12-16T01:23:33.799Z,42.43
2016-12-16T01:24:42.800Z,42.33
2016-12-16T01:25:51.877Z,42.43
2016-12-16T01:27:00.864Z,42.43
2016-12-16T01:28:10.175Z,42.24
2016-12-16T01:29:18.901Z,42.33
2016-12-16T01:30:27.891Z,42.43
2016-12-16T01:31:36.889Z,42.33
2016-12-16T01:32:45.869Z,42.53
2016-12-16T01:33:55.183Z,42.43
2016-12-16T01:35:04.174Z,42.43
2016-12-16T01:36:13.800Z,42.05
2016-12-16T01:37:23.737Z,42.43
2016-12-16T01:38:32.410Z,42.43
2016-12-16T01:39:41.769Z,42.43
2016-12-16T01:40:50.752Z,42.43
2016-12-16T01:42:00.035Z,42.33
2016-12-16T01:43:09.032Z,42.33
2016-12-16T01:44:18.023Z,42.43
2016-12-16T01:45:27.626Z,42.43
2016-12-16T01:46:36.662Z,42.43
2016-12-16T01:47:45.664Z,42.53
2016-12-16T01:48:54.811Z,42.43
2016-12-16T01:50:03.805Z,42.43
2016-12-16T01:51:12.524Z,42.53
2016-12-16T01:52:21.198Z,42.24
2016-12-16T01:53:30.193Z,42.24
2016-12-16T01:54:39.207Z,42.43
2016-12-16T01:55:48.213Z,42.24
2016-12-16T01:56:57.187Z,42.33
2016-12-16T01:58:06.477Z,42.24
2016-12-16T01:59:15.776Z,42.24
2016-12-16T02:00:25.121Z,42.24
2016-12-16T02:01:34.151Z,42.14
2016-12-16T02:02:42.843Z,42.24
2016-12-16T02:03:51.534Z,42.14
2016-12-16T02:05:00.563Z,42.33
2016-12-16T02:06:09.373Z,42.43
2016-12-16T02:07:18.678Z,42.14
2016-12-16T02:08:27.359Z,42.33
2016-12-16T02:09:37.030Z,42.33
2016-12-16T02:10:46.025Z,42.24
2016-12-16T02:11:55.378Z,42.33
2016-12-16T02:13:04.385Z,42.24
2016-12-16T02:14:13.985Z,42.24
2016-12-16T02:15:23.596Z,42.14
2016-12-16T02:16:32.599Z,42.24
2016-12-16T02:17:42.867Z,42.14
2016-12-16T02:18:51.573Z,42.24
2016-12-16T02:20:00.255Z,42.24
2016-12-16T02:21:09.861Z,42.24
2016-12-16T02:22:18.566Z,42.24
2016-12-16T02:23:27.701Z,42.24
2016-12-16T02:24:36.688Z,42.24
2016-12-16T02:25:45.670Z,42.24
2016-12-16T02:26:54.653Z,42.24
2016-12-16T02:28:03.352Z,42.14
2016-12-16T02:29:12.433Z,42.14
2016-12-16T02:30:21.729Z,42.14
2016-12-16T02:31:30.408Z,42.14
2016-12-16T02:32:39.403Z,41.86
2016-12-16T02:33:48.383Z,42.14
2016-12-16T02:34:57.083Z,42.05
2016-12-16T02:36:06.081Z,42.33
2016-12-16T02:37:15.086Z,42.24
2016-12-16T02:38:24.089Z,42.05
2016-12-16T02:39:33.082Z,41.86
2016-12-16T02:40:42.369Z,42.05
2016-12-16T02:41:51.964Z,41.86
2016-12-16T02:43:01.255Z,41.86
2016-12-16T02:44:09.934Z,41.86
2016-12-16T02:45:18.611Z,41.86
2016-12-16T02:46:27.999Z,41.95
2016-12-16T02:47:36.681Z,42.05
2016-12-16T02:48:45.665Z,42.05
2016-12-16T02:49:54.649Z,41.95
2016-12-16T02:51:03.335Z,41.95
2016-12-16T02:52:12.160Z,41.86
2016-12-16T02:53:21.457Z,41.86
2016-12-16T02:54:30.444Z,41.86
2016-12-16T02:55:39.429Z,42.24
2016-12-16T02:56:48.116Z,42.24
2016-12-16T02:57:57.208Z,42.24
2016-12-16T02:59:06.807Z,42.24
2016-12-16T03:00:15.530Z,42.24
2016-12-16T03:01:24.214Z,42.14
2016-12-16T03:02:32.891Z,42.24
2016-12-16T03:03:41.881Z,42.24
2016-12-16T03:04:50.584Z,42.24
2016-12-16T03:05:59.274Z,42.14
2016-12-16T03:07:07.966Z,42.24
2016-12-16T03:08:16.989Z,42.24
2016-12-16T03:09:25.679Z,42.24
2016-12-16T03:10:34.706Z,42.14
2016-12-16T03:11:43.722Z,42.24
2016-12-16T03:12:52.731Z,42.14
2016-12-16T03:14:01.735Z,42.24
2016-12-16T03:15:10.758Z,42.24
2016-12-16T03:16:19.802Z,42.14
2016-12-16T03:17:28.787Z,42.14
2016-12-16T03:18:37.768Z,42.24
2016-12-16T03:19:46.788Z,42.14
2016-12-16T03:20:55.790Z,41.95
2016-12-16T03:22:04.790Z,42.14
2016-12-16T03:23:14.385Z,42.14
2016-12-16T03:24:23.373Z,42.24
2016-12-16T03:25:32.052Z,42.05
2016-12-16T03:26:41.058Z,42.05
2016-12-16T03:27:49.739Z,41.95
2016-12-16T03:28:58.422Z,42.14
2016-12-16T03:30:07.718Z,41.95
2016-12-16T03:31:17.333Z,41.95
2016-12-16T03:32:26.369Z,42.05
2016-12-16T03:33:35.671Z,41.95
2016-12-16T03:34:44.660Z,41.95
2016-12-16T03:35:53.337Z,41.95
2016-12-16T03:37:02.324Z,41.95
2016-12-16T03:38:11.323Z,42.05
2016-12-16T03:39:20.307Z,42.05
2016-12-16T03:40:28.986Z,41.95
2016-12-16T03:41:37.995Z,42.05
2016-12-16T03:42:46.683Z,42.05
2016-12-16T03:43:55.508Z,42.05
2016-12-16T03:45:04.799Z,41.95
2016-12-16T03:46:14.085Z,41.95
2016-12-16T03:47:23.079Z,42.14
2016-12-16T03:48:32.675Z,41.86
2016-12-16T03:49:41.668Z,41.86
2016-12-16T03:50:50.648Z,41.95
2016-12-16T03:52:00.257Z,41.95
2016-12-16T03:53:09.866Z,42.14
2016-12-16T03:54:18.868Z,41.95
2016-12-16T03:55:28.773Z,42.14
2016-12-16T03:56:37.810Z,41.95
2016-12-16T03:57:46.800Z,42.05
2016-12-16T03:58:55.789Z,42.14
2016-12-16T04:00:04.463Z,41.95
2016-12-16T04:01:13.745Z,41.86
2016-12-16T04:02:22.428Z,41.86
2016-12-16T04:03:31.414Z,41.86
2016-12-16T04:04:40.714Z,41.86
2016-12-16T04:05:49.694Z,41.86
2016-12-16T04:06:58.701Z,41.86
2016-12-16T04:08:07.710Z,42.05
2016-12-16T04:09:16.703Z,41.95
2016-12-16T04:10:25.407Z,41.95
2016-12-16T04:11:34.696Z,41.76
2016-12-16T04:12:44.297Z,41.86
2016-12-16T04:13:52.987Z,42.05
2016-12-16T04:15:01.977Z,42.05
2016-12-16T04:16:11.300Z,41.76
2016-12-16T04:17:20.608Z,41.86
2016-12-16T04:18:30.266Z,41.86
2016-12-16T04:19:39.248Z,41.86
2016-12-16T04:20:48.228Z,41.86
2016-12-16T04:21:57.209Z,41.76
2016-12-16T04:23:05.911Z,41.95
2016-12-16T04:24:15.244Z,41.86
2016-12-16T04:25:24.240Z,42.05
2016-12-16T04:26:33.236Z,42.05
2016-12-16T04:27:42.249Z,41.86
2016-12-16T04:28:51.564Z,41.95
2016-12-16T04:30:00.597Z,42.05
2016-12-16T04:31:09.289Z,42.05
2016-12-16T04:32:18.282Z,41.76
2016-12-16T04:33:27.887Z,42.05
2016-12-16T04:34:36.581Z,42.05
2016-12-16T04:35:46.030Z,41.86
2016-12-16T04:36:54.717Z,42.05
2016-12-16T04:38:04.330Z,42.05
2016-12-16T04:39:13.627Z,42.05
2016-12-16T04:40:22.943Z,41.86
2016-12-16T04:41:32.379Z,41.86
2016-12-16T04:42:41.392Z,42.05
2016-12-16T04:43:50.694Z,41.95
2016-12-16T04:45:00.291Z,42.05
2016-12-16T04:46:09.589Z,42.05
2016-12-16T04:47:18.893Z,42.05
2016-12-16T04:48:27.597Z,41.86
2016-12-16T04:49:36.581Z,41.86
2016-12-16T04:50:45.255Z,42.24
2016-12-16T04:51:53.929Z,41.95
2016-12-16T04:53:03.227Z,41.66
2016-12-16T04:54:12.205Z,41.76
2016-12-16T04:55:21.202Z,41.76
2016-12-16T04:56:30.189Z,41.95
2016-12-16T04:57:39.174Z,41.95
2016-12-16T04:58:48.003Z,41.93
2016-12-16T04:59:57.009Z,41.95
2016-12-16T05:01:05.697Z,42.14
2016-12-16T05:02:14.369Z,42.14
2016-12-16T05:03:23.665Z,42.05
2016-12-16T05:04:32.686Z,41.86
2016-12-16T05:05:41.675Z,42.14
2016-12-16T05:06:50.665Z,42.05
2016-12-16T05:07:59.652Z,41.95
2016-12-16T05:09:08.933Z,42.05
2016-12-16T05:10:17.957Z,41.66
2016-12-16T05:11:26.982Z,41.66
2016-12-16T05:12:35.661Z,41.76
2016-12-16T05:13:44.958Z,41.76
2016-12-16T05:14:54.254Z,41.83
2016-12-16T05:16:02.934Z,41.83
2016-12-16T05:17:11.936Z,42.24
2016-12-16T05:18:21.253Z,41.76
2016-12-16T05:19:30.564Z,41.76
2016-12-16T05:20:39.886Z,42.24
2016-12-16T05:21:48.859Z,42.24
2016-12-16T05:22:57.855Z,41.86
2016-12-16T05:24:06.853Z,41.86
2016-12-16T05:25:16.144Z,41.93
2016-12-16T05:26:24.893Z,41.95
2016-12-16T05:27:34.272Z,41.76
2016-12-16T05:28:42.981Z,41.66
2016-12-16T05:29:52.287Z,42.05
2016-12-16T05:31:01.690Z,41.66
2016-12-16T05:32:10.389Z,41.66
2016-12-16T05:33:19.174Z,41.66
2016-12-16T05:34:27.887Z,41.56
2016-12-16T05:35:36.875Z,41.56
2016-12-16T05:36:46.479Z,41.76
2016-12-16T05:37:55.481Z,41.56
2016-12-16T05:39:04.469Z,41.47
2016-12-16T05:40:13.163Z,41.76
2016-12-16T05:41:22.445Z,41.18
2016-12-16T05:42:31.143Z,41.18
2016-12-16T05:43:39.824Z,40.8
2016-12-16T05:44:48.504Z,40.99
2016-12-16T05:45:57.194Z,40.51
2016-12-16T05:47:06.191Z,40.51
2016-12-16T05:48:14.866Z,40.53
2016-12-16T05:49:23.850Z,40.63
2016-12-16T05:50:32.838Z,40.24
2016-12-16T05:51:41.825Z,40.43
2016-12-16T05:52:51.444Z,40.43
2016-12-16T05:54:00.456Z,39.76
2016-12-16T05:55:09.168Z,39.76
2016-12-16T05:56:18.563Z,39.78
2016-12-16T05:57:27.850Z,39.68
2016-12-16T05:58:36.856Z,39.68
2016-12-16T05:59:46.141Z,39.39
2016-12-16T06:00:55.122Z,39.29
2016-12-16T06:02:04.205Z,39.29
2016-12-16T06:03:13.794Z,39.39
2016-12-16T06:04:22.788Z,38.81
2016-12-16T06:05:31.774Z,39.03
2016-12-16T06:06:41.096Z,39.31
2016-12-16T06:07:50.084Z,39.41
2016-12-16T06:08:59.066Z,39.31
2016-12-16T06:10:08.467Z,38.93
2016-12-16T06:11:17.459Z,38.64
2016-12-16T06:12:27.367Z,38.54
2016-12-16T06:13:36.819Z,38.74
2016-12-16T06:14:45.819Z,38.45
2016-12-16T06:15:54.808Z,38.54
2016-12-16T06:17:03.790Z,38.18
2016-12-16T06:18:12.770Z,38.35
2016-12-16T06:19:21.544Z,38.28
2016-12-16T06:20:30.215Z,38.28
2016-12-16T06:21:38.954Z,38.28
2016-12-16T06:22:48.586Z,38.28
2016-12-16T06:23:57.297Z,38.56
2016-12-16T06:25:06.741Z,37.98
2016-12-16T06:26:16.030Z,37.98
2016-12-16T06:27:25.332Z,37.89
2016-12-16T06:28:34.935Z,37.79
2016-12-16T06:29:43.932Z,37.62
2016-12-16T06:30:53.527Z,37.71
2016-12-16T06:32:02.204Z,38.1
2016-12-16T06:33:11.198Z,37.71
2016-12-16T06:34:20.490Z,37.81
2016-12-16T06:35:29.789Z,37.81
2016-12-16T06:36:38.915Z,37.71
2016-12-16T06:37:48.253Z,37.91
2016-12-16T06:38:57.539Z,37.71
2016-12-16T06:40:06.534Z,37.71
2016-12-16T06:41:15.526Z,37.81
2016-12-16T06:42:24.509Z,37.63
2016-12-16T06:43:33.502Z,37.73
2016-12-16T06:44:42.489Z,37.63
2016-12-16T06:45:51.804Z,37.45
2016-12-16T06:47:00.562Z,37.35
2016-12-16T06:48:09.317Z,37.35
2016-12-16T06:49:18.128Z,37.25
2016-12-16T06:50:27.213Z,37.25
2016-12-16T06:51:36.816Z,37.25
2016-12-16T06:52:45.541Z,37.25
2016-12-16T06:53:54.903Z,37.27
2016-12-16T06:55:03.647Z,37.25
2016-12-16T06:56:13.247Z,37.35
2016-12-16T06:57:22.544Z,37.25
2016-12-16T06:58:32.448Z,37.35
2016-12-16T06:59:41.889Z,37.45
2016-12-16T07:00:50.570Z,37.35
2016-12-16T07:01:59.566Z,37.35
2016-12-16T07:03:08.542Z,37.35
2016-12-16T07:04:17.224Z,37.54
2016-12-16T07:05:27.008Z,37.63
2016-12-16T07:06:35.994Z,37.63
2016-12-16T07:07:44.990Z,37.73
2016-12-16T07:08:53.679Z,37.93
2016-12-16T07:10:02.364Z,37.93
2016-12-16T07:11:11.669Z,37.83
2016-12-16T07:12:20.995Z,37.73
2016-12-16T07:13:29.983Z,37.63
2016-12-16T07:14:38.664Z,37.83
2016-12-16T07:15:47.363Z,37.83
2016-12-16T07:16:56.455Z,37.63
2016-12-16T07:18:05.757Z,37.93
2016-12-16T07:19:15.054Z,38.02
2016-12-16T07:20:24.040Z,38.12
2016-12-16T07:21:33.636Z,38.31
2016-12-16T07:22:42.801Z,38.41
2016-12-16T07:23:52.113Z,38.6
2016-12-16T07:25:00.789Z,38.41
2016-12-16T07:26:09.799Z,38.2
2016-12-16T07:27:18.794Z,38.39
2016-12-16T07:28:28.399Z,38.29
2016-12-16T07:29:38.024Z,38.39
2016-12-16T07:30:47.632Z,38.58
2016-12-16T07:31:56.636Z,38.78
2016-12-16T07:33:05.959Z,38.58
2016-12-16T07:34:14.959Z,39.06
2016-12-16T07:35:23.958Z,39.26
2016-12-16T07:36:32.975Z,39.36
2016-12-16T07:37:41.673Z,39.36
2016-12-16T07:38:50.664Z,39.06
2016-12-16T07:39:59.358Z,39.06
2016-12-16T07:41:08.051Z,38.95
2016-12-16T07:42:16.742Z,38.95
2016-12-16T07:43:26.035Z,39.53
2016-12-16T07:44:35.034Z,39.43
2016-12-16T07:45:43.656Z,39.34
2016-12-16T07:46:53.275Z,39.53
2016-12-16T07:48:02.271Z,39.24
2016-12-16T07:49:11.274Z,39.43
2016-12-16T07:50:20.265Z,39.62
2016-12-16T07:51:29.357Z,39.82
2016-12-16T07:52:38.043Z,39.82
2016-12-16T07:53:47.038Z,39.72
2016-12-16T07:54:56.647Z,39.82
2016-12-16T07:56:06.252Z,40.01
2016-12-16T07:57:15.254Z,40.01
2016-12-16T07:58:23.943Z,39.72
2016-12-16T07:59:33.245Z,39.91
2016-12-16T08:00:42.527Z,40.01
2016-12-16T08:01:51.517Z,40.09
2016-12-16T08:03:00.515Z,40.59
2016-12-16T08:04:09.200Z,40.3
2016-12-16T08:05:18.496Z,40.47
2016-12-16T08:06:27.531Z,40.28
2016-12-16T08:07:36.522Z,40.28
2016-12-16T08:08:45.823Z,40.37
2016-12-16T08:09:54.820Z,40.37
2016-12-16T08:11:03.838Z,40.37
2016-12-16T08:12:12.835Z,40.19
2016-12-16T08:13:21.833Z,40.19
2016-12-16T08:14:31.138Z,40.37
2016-12-16T08:15:40.136Z,40.19
2016-12-16T08:16:49.131Z,40.19
2016-12-16T08:17:58.142Z,40.37
2016-12-16T08:19:07.452Z,40.66
2016-12-16T08:20:16.237Z,40.66
2016-12-16T08:21:25.534Z,40.37
2016-12-16T08:22:34.843Z,40.66
2016-12-16T08:23:43.549Z,40.76
2016-12-16T08:24:52.886Z,40.37
2016-12-16T08:26:01.985Z,40.47
2016-12-16T08:27:11.291Z,40.57
2016-12-16T08:28:20.588Z,40.47
2016-12-16T08:29:29.607Z,40.57
2016-12-16T08:30:38.310Z,40.47
2016-12-16T08:31:47.451Z,40.57
2016-12-16T08:32:57.064Z,40.47
2016-12-16T08:34:05.750Z,40.57
2016-12-16T08:35:14.745Z,40.76
2016-12-16T08:36:23.736Z,40.57
2016-12-16T08:37:33.126Z,40.66
2016-12-16T08:38:41.822Z,40.66
2016-12-16T08:39:50.506Z,40.66
2016-12-16T08:40:59.212Z,40.55
2016-12-16T08:42:08.517Z,40.55
2016-12-16T08:43:17.856Z,40.55
2016-12-16T08:44:26.850Z,40.57
2016-12-16T08:45:35.598Z,40.57
2016-12-16T08:46:44.287Z,40.55
2016-12-16T08:47:53.290Z,40.55
2016-12-16T08:49:03.046Z,40.55
2016-12-16T08:50:12.043Z,40.55
2016-12-16T08:51:20.722Z,40.55
2016-12-16T08:52:30.032Z,40.55
2016-12-16T08:53:39.036Z,40.55
2016-12-16T08:54:48.176Z,40.55
2016-12-16T08:55:57.788Z,40.55
2016-12-16T08:57:06.490Z,40.55
2016-12-16T08:58:15.491Z,40.55
2016-12-16T08:59:24.188Z,40.45
2016-12-16T09:00:33.034Z,40.55
2016-12-16T09:01:41.723Z,40.55
2016-12-16T09:02:50.422Z,40.55
2016-12-16T09:03:59.113Z,40.55
2016-12-16T09:05:08.413Z,40.55
2016-12-16T09:06:17.794Z,40.45
2016-12-16T09:07:26.801Z,40.64
2016-12-16T09:08:36.419Z,40.55
2016-12-16T09:09:45.756Z,40.55
2016-12-16T09:10:55.056Z,40.55
2016-12-16T09:12:04.469Z,40.64
2016-12-16T09:13:13.483Z,40.55
2016-12-16T09:14:22.487Z,40.64
2016-12-16T09:15:31.181Z,40.55
2016-12-16T09:16:39.877Z,40.64
2016-12-16T09:17:48.968Z,40.64
2016-12-16T09:18:57.975Z,40.55
2016-12-16T09:20:06.978Z,40.64
2016-12-16T09:21:15.986Z,40.55
2016-12-16T09:22:24.683Z,40.45
2016-12-16T09:23:33.666Z,40.55
2016-12-16T09:24:42.348Z,40.45
2016-12-16T09:25:51.040Z,40.55
2016-12-16T09:27:00.661Z,40.45
2016-12-16T09:28:09.377Z,40.45
2016-12-16T09:29:18.388Z,40.45
2016-12-16T09:30:27.401Z,40.45
2016-12-16T09:31:36.706Z,40.74
2016-12-16T09:32:45.707Z,40.64
2016-12-16T09:33:54.718Z,40.74
2016-12-16T09:35:04.326Z,40.64
2016-12-16T09:36:13.638Z,40.74
2016-12-16T09:37:22.345Z,40.64
2016-12-16T09:38:31.085Z,40.64
2016-12-16T09:39:40.388Z,40.64
2016-12-16T09:40:49.092Z,40.55
2016-12-16T09:41:58.098Z,40.74
2016-12-16T09:43:08.034Z,40.64
2016-12-16T09:44:17.023Z,40.55
2016-12-16T09:45:26.021Z,40.26
2016-12-16T09:46:35.479Z,40.74
2016-12-16T09:47:45.091Z,40.64
2016-12-16T09:48:54.384Z,40.26
2016-12-16T09:50:03.396Z,40.26
2016-12-16T09:51:12.408Z,40.16
2016-12-16T09:52:21.698Z,40.26
2016-12-16T09:53:30.998Z,40.16
2016-12-16T09:54:40.027Z,40.26
2016-12-16T09:55:49.340Z,40.36
2016-12-16T09:56:58.344Z,40.16
2016-12-16T09:58:07.347Z,40.36
2016-12-16T09:59:16.656Z,40.36
2016-12-16T10:00:25.656Z,40.36
2016-12-16T10:01:34.672Z,40.36
2016-12-16T10:02:44.071Z,40.36
2016-12-16T10:03:53.165Z,40.36
2016-12-16T10:05:02.539Z,40.36
2016-12-16T10:06:11.590Z,40.36
2016-12-16T10:07:20.589Z,40.26
2016-12-16T10:08:29.278Z,40.26
2016-12-16T10:09:38.015Z,40.36
2016-12-16T10:10:47.335Z,40.36
2016-12-16T10:11:56.039Z,40.36
2016-12-16T10:13:05.045Z,40.16
2016-12-16T10:14:14.052Z,40.45
2016-12-16T10:15:23.217Z,40.36
2016-12-16T10:16:31.956Z,40.16
2016-12-16T10:17:40.953Z,40.45
2016-12-16T10:18:50.579Z,40.45
2016-12-16T10:19:59.579Z,40.26
2016-12-16T10:21:08.594Z,40.36
2016-12-16T10:22:17.920Z,40.36
2016-12-16T10:23:27.534Z,40.26
2016-12-16T10:24:36.226Z,40.26
2016-12-16T10:25:44.912Z,40.26
2016-12-16T10:26:54.045Z,40.36
2016-12-16T10:28:02.724Z,40.16
2016-12-16T10:29:11.421Z,40.26
2016-12-16T10:30:20.396Z,40.36
2016-12-16T10:31:29.994Z,40.26
2016-12-16T10:32:38.843Z,40.36
2016-12-16T10:33:47.853Z,40.26
2016-12-16T10:34:57.168Z,40.26
2016-12-16T10:36:06.464Z,40.36
2016-12-16T10:37:15.788Z,40.36
2016-12-16T10:38:24.582Z,40.45
2016-12-16T10:39:34.234Z,40.55
2016-12-16T10:40:43.542Z,40.45
2016-12-16T10:41:52.523Z,40.45
2016-12-16T10:43:01.225Z,40.55
2016-12-16T10:44:10.296Z,40.55
2016-12-16T10:45:18.979Z,40.36
2016-12-16T10:46:28.279Z,40.45
2016-12-16T10:47:37.329Z,40.36
2016-12-16T10:48:46.016Z,40.26
2016-12-16T10:49:55.632Z,40.45
2016-12-16T10:51:04.640Z,40.26
2016-12-16T10:52:13.371Z,40.45
2016-12-16T10:53:22.370Z,40.45
2016-12-16T10:54:31.676Z,40.45
2016-12-16T10:55:40.358Z,40.55
2016-12-16T10:56:49.650Z,40.45
2016-12-16T10:57:58.653Z,40.45
2016-12-16T10:59:07.661Z,40.45
2016-12-16T11:00:16.351Z,40.45
2016-12-16T11:01:25.817Z,40.36
2016-12-16T11:02:34.531Z,40.36
2016-12-16T11:03:43.856Z,40.36
2016-12-16T11:04:53.162Z,40.43
2016-12-16T11:06:02.468Z,40.36
2016-12-16T11:07:11.465Z,40.26
2016-12-16T11:08:20.151Z,40.36
2016-12-16T11:09:28.845Z,40.36
2016-12-16T11:10:38.168Z,40.26
2016-12-16T11:11:47.187Z,40.45
2016-12-16T11:12:56.840Z,40.34
2016-12-16T11:14:05.855Z,40.34
2016-12-16T11:15:15.156Z,40.34
2016-12-16T11:16:24.459Z,40.43
2016-12-16T11:17:33.460Z,40.14
2016-12-16T11:18:42.449Z,40.34
2016-12-16T11:19:51.464Z,40.24
2016-12-16T11:21:00.808Z,40.53
2016-12-16T11:22:09.806Z,40.43
2016-12-16T11:23:18.814Z,40.53
2016-12-16T11:24:28.162Z,40.34
2016-12-16T11:25:37.168Z,40.24
2016-12-16T11:26:46.164Z,40.24
2016-12-16T11:27:54.865Z,40.53
2016-12-16T11:29:03.871Z,40.34
2016-12-16T11:30:12.982Z,40.53
2016-12-16T11:31:21.998Z,40.34
2016-12-16T11:32:30.998Z,40.43
2016-12-16T11:33:40.009Z,40.53
2016-12-16T11:34:49.017Z,40.53
2016-12-16T11:35:58.184Z,40.43
2016-12-16T11:37:07.493Z,40.34
2016-12-16T11:38:16.497Z,40.34
2016-12-16T11:39:25.497Z,40.34
2016-12-16T11:40:34.202Z,40.34
2016-12-16T11:41:43.510Z,40.34
2016-12-16T11:42:52.217Z,40.53
2016-12-16T11:44:01.519Z,40.53
2016-12-16T11:45:10.835Z,40.34
2016-12-16T11:46:19.526Z,40.43
2016-12-16T11:47:29.184Z,40.43
2016-12-16T11:48:37.867Z,40.43
2016-12-16T11:49:46.864Z,40.14
2016-12-16T11:50:56.172Z,40.53
2016-12-16T11:52:05.164Z,40.53
2016-12-16T11:53:14.316Z,40.53
2016-12-16T11:54:23.296Z,40.53
2016-12-16T11:55:31.978Z,40.05
2016-12-16T11:56:41.589Z,40.53
2016-12-16T11:57:50.298Z,40.53
2016-12-16T11:58:59.438Z,40.53
2016-12-16T12:00:08.756Z,40.53
2016-12-16T12:01:17.448Z,40.14
2016-12-16T12:02:26.452Z,40.05
2016-12-16T12:03:35.470Z,40.53
2016-12-16T12:04:44.826Z,40.05
2016-12-16T12:05:53.520Z,40.05
2016-12-16T12:07:02.875Z,39.95
2016-12-16T12:08:11.884Z,39.86
2016-12-16T12:09:20.887Z,39.95
2016-12-16T12:10:29.991Z,40.05
2016-12-16T12:11:38.984Z,39.95
2016-12-16T12:12:48.287Z,39.76
2016-12-16T12:13:57.294Z,39.95
2016-12-16T12:15:06.009Z,39.86
2016-12-16T12:16:14.823Z,39.86
2016-12-16T12:17:24.127Z,40.05
2016-12-16T12:18:33.443Z,39.86
2016-12-16T12:19:43.358Z,39.76
2016-12-16T12:20:52.358Z,39.66
2016-12-16T12:22:01.389Z,39.86
2016-12-16T12:23:10.379Z,39.76
2016-12-16T12:24:19.383Z,39.95
2016-12-16T12:25:28.678Z,39.66
2016-12-16T12:26:37.660Z,39.76
2016-12-16T12:27:46.350Z,39.66
2016-12-16T12:28:55.344Z,39.56
2016-12-16T12:30:04.676Z,39.56
2016-12-16T12:31:13.363Z,39.56
2016-12-16T12:32:22.400Z,39.95
2016-12-16T12:33:31.407Z,39.86
2016-12-16T12:34:41.007Z,39.95
2016-12-16T12:35:50.004Z,39.95
2016-12-16T12:36:58.998Z,39.86
2016-12-16T12:38:07.999Z,39.95
2016-12-16T12:39:16.776Z,39.86
2016-12-16T12:40:25.752Z,39.76
2016-12-16T12:41:34.436Z,39.66
2016-12-16T12:42:43.472Z,39.86
2016-12-16T12:43:52.170Z,39.86
2016-12-16T12:45:01.626Z,39.95
2016-12-16T12:46:11.230Z,39.86
2016-12-16T12:47:20.226Z,39.76
2016-12-16T12:48:29.240Z,39.86
2016-12-16T12:49:38.243Z,39.86
2016-12-16T12:50:47.707Z,39.86
2016-12-16T12:51:56.421Z,39.66
2016-12-16T12:53:05.139Z,39.95
2016-12-16T12:54:14.136Z,39.95
2016-12-16T12:55:23.143Z,39.86
2016-12-16T12:56:31.833Z,39.86
2016-12-16T12:57:40.837Z,39.86
2016-12-16T12:58:49.836Z,39.76
2016-12-16T12:59:59.139Z,39.86
2016-12-16T13:01:08.137Z,39.86
2016-12-16T13:02:17.873Z,39.76
2016-12-16T13:03:26.546Z,39.95
2016-12-16T13:04:35.848Z,39.66
2016-12-16T13:05:45.196Z,39.76
2016-12-16T13:06:53.900Z,39.66
2016-12-16T13:08:02.699Z,39.86
2016-12-16T13:09:11.738Z,39.86
2016-12-16T13:10:20.427Z,39.86
2016-12-16T13:11:29.446Z,39.56
2016-12-16T13:12:38.451Z,39.95
2016-12-16T13:13:47.454Z,39.76
2016-12-16T13:14:56.777Z,39.66
2016-12-16T13:16:05.468Z,39.95
2016-12-16T13:17:14.465Z,39.66
2016-12-16T13:18:23.162Z,39.86
2016-12-16T13:19:32.320Z,39.86
2016-12-16T13:20:41.624Z,39.95
2016-12-16T13:21:50.609Z,39.86
2016-12-16T13:22:59.596Z,39.66
2016-12-16T13:24:08.606Z,39.76
2016-12-16T13:25:18.318Z,39.66
2016-12-16T13:26:27.296Z,39.66
2016-12-16T13:27:36.305Z,39.66
2016-12-16T13:28:44.993Z,39.76
2016-12-16T13:29:54.296Z,39.56
2016-12-16T13:31:03.093Z,39.66
2016-12-16T13:32:12.404Z,39.56
2016-12-16T13:33:21.392Z,39.64
2016-12-16T13:34:30.712Z,39.66
2016-12-16T13:35:39.717Z,39.66
2016-12-16T13:36:48.720Z,39.66
2016-12-16T13:37:57.716Z,39.66
2016-12-16T13:39:06.713Z,39.76
2016-12-16T13:40:15.725Z,39.74
2016-12-16T13:41:24.415Z,39.54
2016-12-16T13:42:33.297Z,39.64
2016-12-16T13:43:42.294Z,39.64
2016-12-16T13:44:51.592Z,39.64
2016-12-16T13:46:00.306Z,39.64
2016-12-16T13:47:09.302Z,39.66
2016-12-16T13:48:18.717Z,39.64
2016-12-16T13:49:27.405Z,39.74
2016-12-16T13:50:36.405Z,39.56
2016-12-16T13:51:46.331Z,39.64
2016-12-16T13:52:55.931Z,39.66
2016-12-16T13:54:05.295Z,39.64
2016-12-16T13:55:14.288Z,39.64
2016-12-16T13:56:23.275Z,39.64
2016-12-16T13:57:32.272Z,39.64
2016-12-16T13:58:41.609Z,39.64
2016-12-16T13:59:50.618Z,39.66
2016-12-16T14:00:59.332Z,39.64
2016-12-16T14:02:08.348Z,39.64
2016-12-16T14:03:17.343Z,39.64
2016-12-16T14:04:26.635Z,39.64
2016-12-16T14:05:35.801Z,39.64
2016-12-16T14:06:44.502Z,39.64
2016-12-16T14:07:53.195Z,39.64
2016-12-16T14:09:02.483Z,39.64
2016-12-16T14:10:11.246Z,39.64
2016-12-16T14:11:20.550Z,39.64
2016-12-16T14:12:29.851Z,39.64
2016-12-16T14:13:39.152Z,39.64
2016-12-16T14:14:48.156Z,39.64
2016-12-16T14:15:57.455Z,39.64
2016-12-16T14:17:06.145Z,39.74
2016-12-16T14:18:15.454Z,39.64
2016-12-16T14:19:24.165Z,39.83
2016-12-16T14:20:33.184Z,39.64
2016-12-16T14:21:42.794Z,39.74
2016-12-16T14:22:51.938Z,39.74
2016-12-16T14:24:00.650Z,39.64
2016-12-16T14:25:09.348Z,39.64
2016-12-16T14:26:18.359Z,39.64
2016-12-16T14:27:27.346Z,39.64
2016-12-16T14:28:36.037Z,39.64
2016-12-16T14:29:45.664Z,39.64
2016-12-16T14:30:54.975Z,39.83
2016-12-16T14:32:03.964Z,39.83
2016-12-16T14:33:12.966Z,39.64
2016-12-16T14:34:21.753Z,39.64
2016-12-16T14:35:30.438Z,39.64
2016-12-16T14:36:39.433Z,39.64
2016-12-16T14:37:48.413Z,39.83
2016-12-16T14:38:57.712Z,39.74
2016-12-16T14:40:06.699Z,39.64
2016-12-16T14:41:15.682Z,39.74
2016-12-16T14:42:24.690Z,39.74
2016-12-16T14:43:33.680Z,39.64
2016-12-16T14:44:42.370Z,39.64
2016-12-16T14:45:51.508Z,39.64
2016-12-16T14:47:00.818Z,39.64
2016-12-16T14:48:10.118Z,39.83
2016-12-16T14:49:19.139Z,39.74